Bill's Weather Station Status


Memory

               total        used        free      shared  buff/cache   available
Mem:         3918876      586976      112064        2796     3219836     3063652
Swap:              0           0           0

Uptime

 18:18:58 up 462 days,  6:05,  0 users,  load average: 0.76, 0.86, 0.65


Temperature Database

meteo table size: 879999 rows

Last 50 temperature measurements:
2026-05-08 18:15:05: Inside: 67.4, Outside: 64.5, Pressure: 29.875, Humidity:  47, Illumination: 72.00
2026-05-08 18:10:06: Inside: 67.5, Outside: 63.8, Pressure: 29.874, Humidity:  47, Illumination: 60.00
2026-05-08 18:05:06: Inside: 67.5, Outside: 64.2, Pressure: 29.877, Humidity:  48, Illumination: 50.00
2026-05-08 18:00:05: Inside: 67.7, Outside: 65.4, Pressure: 29.876, Humidity:  48, Illumination: 59.00
2026-05-08 17:55:06: Inside: 67.5, Outside: 65.5, Pressure: 29.876, Humidity:  48, Illumination: 66.00
2026-05-08 17:50:06: Inside: 67.7, Outside: 65.8, Pressure: 29.878, Humidity:  48, Illumination: 72.00
2026-05-08 17:45:06: Inside: 67.5, Outside: 65.6, Pressure: 29.875, Humidity:  48, Illumination: 68.00
2026-05-08 17:40:06: Inside: 67.5, Outside: 65.6, Pressure: 29.877, Humidity:  48, Illumination: 64.00
2026-05-08 17:35:06: Inside: 67.5, Outside: 66.1, Pressure: 29.877, Humidity:  47, Illumination: 67.00
2026-05-08 17:30:06: Inside: 67.5, Outside: 65.5, Pressure: 29.879, Humidity:  47, Illumination: 74.00
2026-05-08 17:25:06: Inside: 67.5, Outside: 65.2, Pressure: 29.881, Humidity:  47, Illumination: 77.00
2026-05-08 17:20:06: Inside: 67.5, Outside: 65.0, Pressure: 29.879, Humidity:  47, Illumination: 66.00
2026-05-08 17:15:05: Inside: 67.5, Outside: 66.2, Pressure: 29.880, Humidity:  47, Illumination: 70.00
2026-05-08 17:10:05: Inside: 67.5, Outside: 66.8, Pressure: 29.883, Humidity:  47, Illumination: 78.00
2026-05-08 17:05:05: Inside: 67.5, Outside: 66.9, Pressure: 29.881, Humidity:  47, Illumination: 100.00
2026-05-08 17:00:05: Inside: 67.4, Outside: 66.5, Pressure: 29.882, Humidity:  47, Illumination: 111.00
2026-05-08 16:55:05: Inside: 67.4, Outside: 66.0, Pressure: 29.886, Humidity:  48, Illumination: 123.00
2026-05-08 16:50:05: Inside: 67.4, Outside: 66.7, Pressure: 29.884, Humidity:  48, Illumination: 88.00
2026-05-08 16:45:05: Inside: 67.4, Outside: 67.1, Pressure: 29.883, Humidity:  48, Illumination: 113.00
2026-05-08 16:40:06: Inside: 67.4, Outside: 66.2, Pressure: 29.882, Humidity:  48, Illumination: 101.00
2026-05-08 16:35:05: Inside: 67.4, Outside: 66.5, Pressure: 29.883, Humidity:  48, Illumination: 120.00
2026-05-08 16:30:04: Inside: 67.4, Outside: 67.4, Pressure: 29.882, Humidity:  48, Illumination: 126.00
2026-05-08 16:25:05: Inside: 67.4, Outside: 67.2, Pressure: 29.882, Humidity:  48, Illumination: 131.00
2026-05-08 16:20:05: Inside: 67.3, Outside: 67.7, Pressure: 29.881, Humidity:  48, Illumination: 107.00
2026-05-08 16:15:04: Inside: 67.3, Outside: 67.4, Pressure: 29.878, Humidity:  48, Illumination: 143.00
2026-05-08 16:10:05: Inside: 67.2, Outside: 67.4, Pressure: 29.880, Humidity:  49, Illumination: 108.00
2026-05-08 16:05:05: Inside: 67.2, Outside: 66.4, Pressure: 29.879, Humidity:  49, Illumination: 89.00
2026-05-08 16:00:05: Inside: 67.2, Outside: 66.3, Pressure: 29.879, Humidity:  49, Illumination: 61.00
2026-05-08 15:55:05: Inside: 67.2, Outside: 67.2, Pressure: 29.879, Humidity:  49, Illumination: 83.00
2026-05-08 15:50:05: Inside: 67.2, Outside: 67.4, Pressure: 29.876, Humidity:  49, Illumination: 64.00
2026-05-08 15:45:06: Inside: 67.3, Outside: 68.0, Pressure: 29.877, Humidity:  49, Illumination: 81.00
2026-05-08 15:40:05: Inside: 67.2, Outside: 68.0, Pressure: 29.879, Humidity:  49, Illumination: 79.00
2026-05-08 15:35:05: Inside: 67.2, Outside: 69.3, Pressure: 29.878, Humidity:  49, Illumination: 79.00
2026-05-08 15:30:05: Inside: 67.3, Outside: 71.2, Pressure: 29.877, Humidity:  49, Illumination: 129.00
2026-05-08 15:25:05: Inside: 67.2, Outside: 71.0, Pressure: 29.881, Humidity:  48, Illumination: 128.00
2026-05-08 15:20:04: Inside: 67.2, Outside: 70.5, Pressure: 29.879, Humidity:  48, Illumination: 149.00
2026-05-08 15:15:05: Inside: 67.1, Outside: 69.6, Pressure: 29.882, Humidity:  49, Illumination: 146.00
2026-05-08 15:10:05: Inside: 67.1, Outside: 70.0, Pressure: 29.885, Humidity:  49, Illumination: 142.00
2026-05-08 15:05:05: Inside: 67.0, Outside: 70.1, Pressure: 29.886, Humidity:  49, Illumination: 134.00
2026-05-08 15:00:05: Inside: 67.0, Outside: 70.0, Pressure: 29.886, Humidity:  49, Illumination: 112.00
2026-05-08 14:55:04: Inside: 66.9, Outside: 68.7, Pressure: 29.887, Humidity:  49, Illumination: 115.00
2026-05-08 14:50:05: Inside: 66.8, Outside: 67.9, Pressure: 29.888, Humidity:  49, Illumination: 82.00
2026-05-08 14:45:05: Inside: 66.8, Outside: 67.2, Pressure: 29.889, Humidity:  49, Illumination: 75.00
2026-05-08 14:40:05: Inside: 66.8, Outside: 67.4, Pressure: 29.889, Humidity:  49, Illumination: 72.00
2026-05-08 14:35:05: Inside: 66.8, Outside: 67.9, Pressure: 29.894, Humidity:  49, Illumination: 77.00
2026-05-08 14:30:05: Inside: 66.7, Outside: 67.8, Pressure: 29.896, Humidity:  49, Illumination: 131.00
2026-05-08 14:25:05: Inside: 66.7, Outside: 67.3, Pressure: 29.902, Humidity:  49, Illumination: 143.00
2026-05-08 14:20:06: Inside: 66.5, Outside: 67.5, Pressure: 29.899, Humidity:  49, Illumination: 77.00
2026-05-08 14:15:06: Inside: 66.7, Outside: 67.7, Pressure: 29.901, Humidity:  49, Illumination: 102.00
2026-05-08 14:10:06: Inside: 66.5, Outside: 68.3, Pressure: 29.904, Humidity:  49, Illumination: 100.00

Gas Readings Database

gas table size: 254357 rows

Last 50 gas reading changes:
2026-05-08 17:00:47: Reading: 101830
2026-05-08 16:58:17: Reading: 101828,   ΔT:   2 min,   ΔR:  2 cf
2026-05-08 16:57:16: Reading: 101826,   ΔT:   1 min,   ΔR:  2 cf
2026-05-08 16:56:32: Reading: 101824,   ΔT:   0 min,   ΔR:  2 cf
2026-05-08 16:53:32: Reading: 101818,   ΔT:   3 min,   ΔR:  6 cf
2026-05-08 15:25:02: Reading: 101816,   ΔT:  88 min,   ΔR:  2 cf
2026-05-08 15:22:46: Reading: 101814,   ΔT:   2 min,   ΔR:  2 cf
2026-05-08 15:21:31: Reading: 101812,   ΔT:   1 min,   ΔR:  2 cf
2026-05-08 14:14:01: Reading: 101810,   ΔT:  67 min,   ΔR:  2 cf
2026-05-08 13:11:31: Reading: 101808,   ΔT:  62 min,   ΔR:  2 cf
2026-05-08 13:07:32: Reading: 101804,   ΔT:   3 min,   ΔR:  4 cf
2026-05-08 11:58:32: Reading: 101802,   ΔT:  69 min,   ΔR:  2 cf
2026-05-08 11:57:31: Reading: 101800,   ΔT:   1 min,   ΔR:  2 cf
2026-05-08 11:56:31: Reading: 101798,   ΔT:   1 min,   ΔR:  2 cf
2026-05-08 10:47:47: Reading: 101796,   ΔT:  68 min,   ΔR:  2 cf
2026-05-08 10:42:17: Reading: 101794,   ΔT:   5 min,   ΔR:  2 cf
2026-05-08 10:41:31: Reading: 101792,   ΔT:   0 min,   ΔR:  2 cf
2026-05-08 09:47:32: Reading: 101788,   ΔT:  53 min,   ΔR:  4 cf
2026-05-08 09:45:17: Reading: 101786,   ΔT:   2 min,   ΔR:  2 cf
2026-05-08 08:49:02: Reading: 101784,   ΔT:  56 min,   ΔR:  2 cf
2026-05-08 08:42:47: Reading: 101782,   ΔT:   6 min,   ΔR:  2 cf
2026-05-08 08:20:02: Reading: 101780,   ΔT:  22 min,   ΔR:  2 cf
2026-05-08 07:26:32: Reading: 101778,   ΔT:  53 min,   ΔR:  2 cf
2026-05-08 07:25:47: Reading: 101776,   ΔT:   0 min,   ΔR:  2 cf
2026-05-08 06:10:46: Reading: 101774,   ΔT:  75 min,   ΔR:  2 cf
2026-05-08 06:08:47: Reading: 101772,   ΔT:   1 min,   ΔR:  2 cf
2026-05-08 04:53:17: Reading: 101770,   ΔT:  75 min,   ΔR:  2 cf
2026-05-08 04:51:32: Reading: 101768,   ΔT:   1 min,   ΔR:  2 cf
2026-05-08 03:36:32: Reading: 101766,   ΔT:  75 min,   ΔR:  2 cf
2026-05-08 02:34:01: Reading: 101762,   ΔT:  62 min,   ΔR:  4 cf
2026-05-08 02:09:02: Reading: 101760,   ΔT:  24 min,   ΔR:  2 cf
2026-05-08 02:05:02: Reading: 101758,   ΔT:   4 min,   ΔR:  2 cf
2026-05-08 00:58:16: Reading: 101756,   ΔT:  66 min,   ΔR:  2 cf
2026-05-08 00:55:46: Reading: 101754,   ΔT:   2 min,   ΔR:  2 cf
2026-05-07 23:35:02: Reading: 101752,   ΔT:  80 min,   ΔR:  2 cf
2026-05-07 22:05:17: Reading: 101748,   ΔT:  89 min,   ΔR:  4 cf
2026-05-07 22:03:17: Reading: 101746,   ΔT:   2 min,   ΔR:  2 cf
2026-05-07 22:01:17: Reading: 101744,   ΔT:   2 min,   ΔR:  2 cf
2026-05-07 20:31:32: Reading: 101742,   ΔT:  89 min,   ΔR:  2 cf
2026-05-07 20:28:33: Reading: 101740,   ΔT:   2 min,   ΔR:  2 cf
2026-05-07 20:27:33: Reading: 101738,   ΔT:   1 min,   ΔR:  2 cf
2026-05-07 18:35:02: Reading: 101736,   ΔT: 112 min,   ΔR:  2 cf
2026-05-07 18:32:47: Reading: 101732,   ΔT:   2 min,   ΔR:  4 cf
2026-05-07 17:03:17: Reading: 101730,   ΔT:  89 min,   ΔR:  2 cf
2026-05-07 17:01:03: Reading: 101728,   ΔT:   2 min,   ΔR:  2 cf
2026-05-07 17:00:02: Reading: 101726,   ΔT:   1 min,   ΔR:  2 cf
2026-05-07 16:59:02: Reading: 101724,   ΔT:   1 min,   ΔR:  2 cf
2026-05-07 15:36:32: Reading: 101722,   ΔT:  82 min,   ΔR:  2 cf
2026-05-07 15:35:47: Reading: 101720,   ΔT:   0 min,   ΔR:  2 cf
2026-05-07 15:06:32: Reading: 101718,   ΔT:  29 min,   ΔR:  2 cf